Aviation Digital Data Service (ADDS)

Output produced by METARs form (0017 UTC 25 April 2019)
found at http://www.aviationweather.gov/metar/data/
 
Forecast for: VTSE (CHUMPHON , TH)
Text: TAF VTSE 242300Z 2500/2524 VRB02KT 9999 FEW020
Forecast period: 0000 to 0400 UTC 25 April 2019
Forecast type: FROM: standard forecast or significant change
Winds: variable direction winds at 2 MPH (2 knots; 1.0 m/s)
Visibility: 6 or more miles 10+ km)
Ceiling: at least 12,000 feet AGL
Clouds: few clouds at 2000 feet AGL
Weather: no significant weather forecast for this period
Text: BECMG 2504/2506 12010KT
Forecast period: 0400 to 1300 UTC 25 April 2019
Forecast type: BECOMING: Conditions expected to become as follows by 0600 UTC 25 April 2019
Winds: from the ESE (120 degrees) at 12 MPH (10 knots; 5.1 m/s)
Visibility: 6 or more miles 10+ km)
Ceiling: at least 12,000 feet AGL
Clouds: few clouds at 2000 feet AGL
Weather: no significant weather forecast for this period
Text: BECMG 2513/2515 VRB02KT
Forecast period: 1300 UTC 25 April 2019 to 0000 UTC 26 April 2019
Forecast type: BECOMING: Conditions expected to become as follows by 1500 UTC 25 April 2019
Winds: variable direction winds at 2 MPH (2 knots; 1.0 m/s)
Visibility: 6 or more miles 10+ km)
Ceiling: at least 12,000 feet AGL
Clouds: few clouds at 2000 feet AGL
Weather: no significant weather forecast for this period